Airfield :
LOGIN :

Register | Disclaimer

   EN    FR    IT 

 










Legend :    VFR   Marginal VFR   IFR   Intensive IFR   Very Intensive IFR
Visi :
Ceiling :
>= 8 km
>= 3000ft
5 to 8 km
1000 to 3000 ft
1500m to 5 km
500 to 1000 ft
800 to 1500m
200 to 500 ft
< 800m
< 200 ft
Symbols :   Thunderstorms  Fog  Heavy snow  Heavy precipitations  Wind > 20 kt
SIGMETs :     Misc.  Thunderstorms  Icing  Turbulence  Mountain Waves  Volcanic Ashes







- Airport Elevation : 538 ft
- IATA code : TNF
- Download approach charts


LFPN - Toussus Le Noble

CURRENT METAR :
  • 162200Z AUTO 28006KT 9999 FEW030/// BKN041/// BKN047/// ///TCU 02/01 Q1022

EXPIRED METARs :
  • 162130Z AUTO 25005KT 9999 -RA BKN024 OVC035 02/01 Q1022 TEMPO BKN012 BECMG 33010KT
  • 162100Z AUTO 24004KT 9999 BKN027/// BKN036/// OVC052/// ///TCU 02/01 Q1022 TEMPO BKN012 BECMG 33010KT
  • 162030Z AUTO 25003KT 9999 -RA ///TCU 02/00 Q1022 TEMPO BKN012 BECMG 33010KT
  • 162000Z AUTO 27006KT 9999 FEW041 BKN049 BKN058 03/00 Q1021 BECMG 33010KT
  • 161930Z AUTO 28007KT 9999 FEW044 BKN060 BKN086 02/00 Q1022 NOSIG

TAF TAF LFPN
Valid from the 16 at 18:00 until the 17 at 03:00 UTC


161700Z 1618/1703 33010KT CAVOK
TEMPO 1622/1703 -RA BKN012
ATIS : +33 1 39 56 54 70
No reported NOTAMs for that airfield.



MET'MAP, your aeronautical weather chart ! - Copyright ORBIFLY December 2007 - Disclaimer

ORBIFLY MET'MAP TEAM :

Programming & Development : Alexandra Zaïnal
Concept & Development : Baudouin d'Aumeries
Co-Development & Prog : Marc-Olivier Méhu
Technical & hardware support : Manuel Goepfert

Contact : metmap@orbifly.com




SOURCES & CREDITS :

   NOAA